Pagina principale
METAR-TAF:

METAR-TAF

Aeroporti :

Aeroporto di Innsbruck

Innsbruck, Austria

latitudine: 47-16N, longitudine: 011-21E, altezza: 581 m

Osservazione

Il bollettino è stato emesso 39 minuti fa, alle 12:20 UTC
Vento 4 kt da sud-est, variando fra est e sud
Temperature 5°C
Umidità 65%
Pressione 1017 hPa
Visibilità 10 km o più
Poco nuvoloso ad un'altezza di 2000 ft
Nubi sparse ad un'altezza di 8000 ft

METAR: LOWI 061220Z 14004KT 100V170 9999 FEW020 SCT080 05/M01 Q1017 NOSIG

Ora: 13:59 (12:59 UTC)

Previsione

Il bollettino è stato emesso 1 ora e 44 minuti fa, alle 11:15 UTC
Previsione valida dal 06 alle 12 UTC al 07 alle 12 UTC
Vento 3 kt da direzioni variabili
Visibilità 10 km o più
Poco nuvoloso ad un'altezza di 800 ft
Temporaneamente
dal 07 alle 02 UTC al 07 alle 12 UTC
Nuvoloso ad un'altezza di 800 ft

TAF: LOWI 061115Z 0612/0712 VRB03KT 9999 FEW008 TX05/0613Z TNM02/0703Z TEMPO 0702/0712 BKN008

Osservazioni e previsioni meteorologiche di più di 4000 aeroporti (messaggi METAR e TAF).

Le stazioni disponibili sono rappresentate dai dischi gialli e rossi sulla carta.

Puntare il mouse per vedere il nome della stazione.

Clicca sopra per visualizzare le osservazioni e previsioni meteorologiche.

Per cambiare la mappa : fare clic sui pulsanti verdi con una croce nera per ingrandire, il pulsante verde con un trattino per diminuire, o sulla freccia verde per le mappe adiacenti.


METAR-TAF: